Time;durP1;ratioP1;P1;durP2;ratioP2;P2;SDS_P1;SDS_P2;PMS_P1;PMS_P2;Temp;Humidity;BMP_temperature;BMP_pressure;BME280_temperature;BME280_humidity;BME280_pressure;Samples;Min_cycle;Max_cycle;Signal;HPM_P1;HPM_P2
2023/12/06 19:48:26;;;;;;;30.60;17.70;;;;;;;1.40;100.00;101362.89;104141;1285;600645;-74
2023/12/06 19:50:56;;;;;;;34.70;17.10;;;;;;;1.42;100.00;101361.31;106162;1267;63359;-76
2023/12/06 19:53:26;;;;;;;30.50;17.60;;;;;;;1.46;100.00;101364.98;106960;1251;61198;-73
2023/12/06 19:55:56;;;;;;;34.60;17.30;;;;;;;1.53;100.00;101366.35;106663;1249;72288;-73
2023/12/06 19:58:25;;;;;;;35.60;17.80;;;;;;;1.55;100.00;101370.61;106845;1250;69859;-74
2023/12/06 20:00:54;;;;;;;30.20;16.50;;;;;;;1.53;100.00;101373.23;106687;1249;209510;-73
2023/12/06 20:03:23;;;;;;;30.40;16.50;;;;;;;1.56;100.00;101378.13;107111;1247;70961;-73
2023/12/06 20:05:56;;;;;;;27.60;16.70;;;;;;;1.59;100.00;101380.64;107064;1250;62479;-73
2023/12/06 20:08:34;;;;;;;25.40;15.60;;;;;;;1.54;100.00;101381.28;107066;1250;59131;-73
2023/12/06 20:11:03;;;;;;;27.90;14.90;;;;;;;1.46;100.00;101379.23;107118;1247;69173;-74
2023/12/06 20:13:32;;;;;;;27.30;15.30;;;;;;;1.51;100.00;101385.98;107030;1257;70081;-73
2023/12/06 20:16:02;;;;;;;28.20;16.00;;;;;;;1.50;100.00;101386.87;107277;1247;69734;-74
2023/12/06 20:18:50;;;;;;;25.70;15.50;;;;;;;1.33;100.00;101361.02;107343;1246;73201;-74
2023/12/06 20:21:27;;;;;;;29.30;16.90;;;;;;;1.43;100.00;101386.67;107142;1247;62921;-77
2023/12/06 20:23:59;;;;;;;27.50;16.40;;;;;;;1.52;100.00;101389.40;107398;1249;57631;-77
2023/12/06 20:26:29;;;;;;;25.70;14.60;;;;;;;1.55;100.00;101389.99;107210;1247;61373;-76
2023/12/06 20:29:00;;;;;;;30.10;15.00;;;;;;;1.52;100.00;101390.41;106963;1247;69564;-78
2023/12/06 20:31:29;;;;;;;27.20;15.40;;;;;;;1.53;100.00;101392.63;106933;1251;67159;-78
2023/12/06 20:33:58;;;;;;;29.20;15.90;;;;;;;1.51;100.00;101394.05;106890;1250;73937;-83
2023/12/06 20:36:28;;;;;;;30.50;18.00;;;;;;;1.48;100.00;101396.52;107054;1247;59169;-76
2023/12/06 20:38:57;;;;;;;25.90;15.10;;;;;;;1.52;100.00;101396.25;106921;1247;60327;-80
2023/12/06 20:41:26;;;;;;;24.50;15.30;;;;;;;1.42;100.00;101400.45;106854;1246;73851;-77
2023/12/06 20:43:55;;;;;;;22.00;13.70;;;;;;;1.39;100.00;101405.14;106836;1247;72397;-80
2023/12/06 20:46:25;;;;;;;23.70;14.10;;;;;;;1.39;100.00;101413.73;106835;1245;70306;-77
2023/12/06 20:48:55;;;;;;;26.10;15.50;;;;;;;1.31;100.00;101414.94;106947;1247;75085;-78
2023/12/06 20:51:24;;;;;;;24.80;14.10;;;;;;;1.31;100.00;101416.84;106818;1247;59147;-78
2023/12/06 20:53:54;;;;;;;25.80;15.40;;;;;;;1.35;100.00;101415.36;106925;1246;61256;-77
2023/12/06 20:56:23;;;;;;;27.70;14.60;;;;;;;1.33;100.00;101414.21;106792;1245;73332;-78
2023/12/06 20:58:53;;;;;;;25.60;15.00;;;;;;;1.29;100.00;101417.05;106779;1245;72213;-82
2023/12/06 21:01:22;;;;;;;24.40;15.10;;;;;;;1.27;100.00;101419.14;106831;1247;70499;-80
2023/12/06 21:03:51;;;;;;;24.70;14.30;;;;;;;1.27;100.00;101419.84;107005;1247;71853;-79
2023/12/06 21:06:21;;;;;;;29.50;15.90;;;;;;;1.27;100.00;101415.02;107036;1245;60460;-76
2023/12/06 21:08:50;;;;;;;28.10;15.60;;;;;;;1.21;100.00;101412.77;107006;1245;57854;-77
2023/12/06 21:11:19;;;;;;;27.90;16.80;;;;;;;1.19;100.00;101409.70;107115;1250;73084;-77
2023/12/06 21:13:48;;;;;;;26.70;15.10;;;;;;;1.19;100.00;101405.77;106879;1253;71051;-79
2023/12/06 21:16:17;;;;;;;25.30;14.70;;;;;;;1.17;100.00;101403.42;107075;1246;70311;-77
2023/12/06 21:18:47;;;;;;;28.80;16.10;;;;;;;1.16;100.00;101405.83;107021;1247;75201;-79
2023/12/06 21:21:16;;;;;;;26.30;15.20;;;;;;;1.10;100.00;101405.11;107035;1247;61096;-79
2023/12/06 21:23:45;;;;;;;28.20;17.50;;;;;;;1.12;100.00;101403.35;107137;1247;59081;-78
2023/12/06 21:26:15;;;;;;;26.90;16.40;;;;;;;1.11;100.00;101408.86;107175;1247;71435;-79
2023/12/06 21:28:44;;;;;;;27.30;15.90;;;;;;;1.11;100.00;101417.10;107168;1247;70284;-79
2023/12/06 21:31:15;;;;;;;26.40;15.00;;;;;;;1.14;100.00;101418.40;107146;1247;69600;-79
2023/12/06 21:33:44;;;;;;;28.40;15.50;;;;;;;1.17;100.00;101416.98;107019;1247;62359;-80
2023/12/06 21:36:13;;;;;;;24.10;14.30;;;;;;;1.11;100.00;101417.79;107077;1247;59608;-80
2023/12/06 21:38:42;;;;;;;28.80;16.20;;;;;;;1.04;100.00;101417.61;107017;1257;59977;-79
2023/12/06 21:41:14;;;;;;;24.50;15.10;;;;;;;1.02;100.00;101415.23;107096;1247;70915;-76
2023/12/06 21:43:43;;;;;;;25.60;15.00;;;;;;;1.06;100.00;101417.40;107031;1247;71157;-76
2023/12/06 21:46:16;;;;;;;23.80;15.00;;;;;;;1.03;100.00;101413.50;107133;1254;68666;-78
2023/12/06 21:48:45;;;;;;;24.80;14.20;;;;;;;1.00;100.00;101413.90;107156;1247;71624;-76
2023/12/06 21:51:21;;;;;;;28.40;15.00;;;;;;;1.00;100.00;101414.42;107050;1247;60382;-78
2023/12/06 21:53:50;;;;;;;24.90;16.00;;;;;;;0.90;100.00;101415.84;107068;1245;59167;-77
2023/12/06 21:56:21;;;;;;;29.90;15.90;;;;;;;0.88;100.00;101414.02;107029;1247;71802;-77
2023/12/06 21:58:50;;;;;;;27.50;14.30;;;;;;;0.92;100.00;101411.85;107057;1245;73022;-77
2023/12/06 22:01:19;;;;;;;27.50;14.10;;;;;;;0.93;100.00;101416.11;106944;1257;70877;-75
2023/12/06 22:03:49;;;;;;;26.10;15.10;;;;;;;0.91;100.00;101416.65;107093;1247;73975;-78
2023/12/06 22:06:19;;;;;;;25.70;14.30;;;;;;;0.82;100.00;101419.79;106942;1244;60086;-78
2023/12/06 22:08:49;;;;;;;26.10;15.80;;;;;;;0.87;100.00;101419.33;107070;1257;60475;-76
2023/12/06 22:11:18;;;;;;;24.70;15.00;;;;;;;0.80;100.00;101423.60;107089;1248;71424;-75
2023/12/06 22:13:47;;;;;;;26.00;14.70;;;;;;;0.83;100.00;101423.72;107079;1246;70233;-79
2023/12/06 22:16:16;;;;;;;28.00;15.60;;;;;;;0.78;100.00;101424.14;107196;1247;68918;-77
2023/12/06 22:18:45;;;;;;;29.40;17.20;;;;;;;0.76;100.00;101424.36;107243;1247;71017;-78
2023/12/06 22:21:18;;;;;;;34.80;17.30;;;;;;;0.70;100.00;101422.95;107217;1247;59548;-80
2023/12/06 22:23:46;;;;;;;30.50;16.30;;;;;;;0.74;100.00;101423.20;107168;1256;60381;-82
2023/12/06 22:26:15;;;;;;;28.00;16.50;;;;;;;0.76;100.00;101424.70;107024;1257;69602;-77
2023/12/06 22:28:46;;;;;;;27.90;15.40;;;;;;;0.77;100.00;101424.34;107071;1246;72572;-79
2023/12/06 22:31:16;;;;;;;30.50;17.70;;;;;;;0.75;100.00;101424.56;107107;1248;67318;-78
2023/12/06 22:33:45;;;;;;;28.70;15.80;;;;;;;0.74;100.00;101425.95;107043;1245;73139;-77
2023/12/06 22:36:14;;;;;;;29.70;17.00;;;;;;;0.75;100.00;101423.69;107061;1247;62105;-75
2023/12/06 22:39:04;;;;;;;32.60;16.50;;;;;;;0.61;100.00;101420.20;107024;1257;60566;-78
2023/12/06 22:41:33;;;;;;;32.60;17.30;;;;;;;0.67;100.00;101416.31;107025;1250;70745;-74
2023/12/06 22:44:02;;;;;;;28.80;16.60;;;;;;;0.66;100.00;101417.86;107048;1247;73137;-78
2023/12/06 22:46:32;;;;;;;31.30;18.10;;;;;;;0.69;100.00;101413.88;107035;1244;71324;-76
2023/12/06 22:49:01;;;;;;;30.30;17.90;;;;;;;0.61;100.00;101419.20;106961;1247;73092;-74
2023/12/06 22:51:30;;;;;;;29.10;17.50;;;;;;;0.65;100.00;101419.61;107040;1247;59085;-76
2023/12/06 22:53:59;;;;;;;35.30;16.60;;;;;;;0.59;100.00;101420.77;107112;1257;59821;-76
2023/12/06 22:56:28;;;;;;;29.10;16.90;;;;;;;0.61;100.00;101419.52;107071;1247;72590;-76
2023/12/06 22:58:57;;;;;;;31.40;17.00;;;;;;;0.54;100.00;101412.46;107020;1246;72262;-79
2023/12/06 23:01:26;;;;;;;30.10;17.10;;;;;;;0.60;100.00;101411.82;107129;1257;70572;-77
2023/12/06 23:03:55;;;;;;;31.80;17.30;;;;;;;0.59;100.00;101410.65;107054;1248;72629;-79
2023/12/06 23:06:24;;;;;;;34.00;17.80;;;;;;;0.56;100.00;101406.75;107088;1257;61831;-77
2023/12/06 23:08:54;;;;;;;31.10;16.60;;;;;;;0.57;100.00;101408.13;107063;1246;59631;-78
2023/12/06 23:11:23;;;;;;;30.20;17.50;;;;;;;0.52;100.00;101407.86;107016;1247;70089;-76
2023/12/06 23:13:52;;;;;;;31.40;16.40;;;;;;;0.55;100.00;101406.96;106996;1247;69846;-78
2023/12/06 23:16:23;;;;;;;32.00;17.30;;;;;;;0.50;100.00;101405.69;107029;1257;68131;-79
2023/12/06 23:18:53;;;;;;;28.80;16.40;;;;;;;0.50;100.00;101404.32;107103;1247;72032;-78
2023/12/06 23:21:22;;;;;;;32.20;17.30;;;;;;;0.48;100.00;101402.64;107112;1247;60417;-76
2023/12/06 23:23:52;;;;;;;29.00;17.00;;;;;;;0.52;100.00;101402.05;107103;1247;59652;-77
2023/12/06 23:26:21;;;;;;;32.40;17.70;;;;;;;0.49;100.00;101402.95;107041;1247;73787;-77
2023/12/06 23:28:53;;;;;;;32.50;17.00;;;;;;;0.47;100.00;101401.45;107079;1247;71930;-76
2023/12/06 23:31:22;;;;;;;29.70;17.20;;;;;;;0.46;100.00;101397.52;107062;1248;68409;-76
2023/12/06 23:33:51;;;;;;;29.70;17.80;;;;;;;0.49;100.00;101396.77;107062;1247;71086;-75
2023/12/06 23:36:20;;;;;;;30.80;17.20;;;;;;;0.49;100.00;101401.25;107026;1247;59732;-75
2023/12/06 23:38:50;;;;;;;33.10;16.10;;;;;;;0.46;100.00;101400.62;106967;1247;60516;-75
2023/12/06 23:41:18;;;;;;;34.20;17.90;;;;;;;0.44;100.00;101407.69;107059;1247;72645;-76
2023/12/06 23:43:48;;;;;;;28.30;16.30;;;;;;;0.47;100.00;101405.23;107139;1244;72261;-76
2023/12/06 23:46:18;;;;;;;30.90;16.20;;;;;;;0.42;100.00;101401.21;107033;1244;70299;-78
2023/12/06 23:48:47;;;;;;;31.10;17.20;;;;;;;0.34;100.00;101401.54;107055;1247;73072;-76
2023/12/06 23:51:21;;;;;;;30.90;18.00;;;;;;;0.24;100.00;101402.05;107088;1247;61094;-75
2023/12/06 23:53:51;;;;;;;32.90;17.80;;;;;;;0.23;100.00;101402.26;107108;1247;60409;-77
2023/12/06 23:56:20;;;;;;;31.10;16.90;;;;;;;0.32;100.00;101402.95;107161;1244;70340;-78
2023/12/06 23:58:49;;;;;;;31.70;17.60;;;;;;;0.28;100.00;101402.68;107203;1247;69547;-80
